Flight Track Log - Related Links

Times and Time Zones

All times are in EDT time to prevent confusion due to time zone crossing. See the AVI900C flight status page for this flight to view local times or setup timezone preferences in your user account.


Time Position Orientation Groundspeed Altitude Reporting Facility
EDT Latitude Longitude Course Direction KTS MPH feet Rate Location/Type
Sun 12:20:58 AM 32.8000 -96.7833 134° Southeast 187 215 3,200  Level Dallas / Fort Worth TRACON
Sun 12:22:16 AM 32.7522 -96.7242 131° Southeast 217 250 4,900 783 Climbing Fort Worth Center
Sun 12:23:16 AM 32.7058 -96.6603 68° East 255 293 5,000 1,300 Climbing Fort Worth Center
Sun 12:24:16 AM 32.7367 -96.5689 39° Northeast 245 282 7,500 2,650 Climbing Fort Worth Center
Sun 12:25:16 AM 32.8008 -96.5064 40° Northeast 256 295 10,300 1,950 Climbing Fort Worth Center
Sun 12:26:16 AM 32.8672 -96.4389 40° Northeast 297 342 11,400 1,450 Climbing Fort Worth Center
Sun 12:27:16 AM 32.9439 -96.3614 47° Northeast 350 403 13,200 1,800 Climbing Fort Worth Center
Sun 12:28:16 AM 33.0139 -96.2714 51° Northeast 365 420 15,000 1,900 Climbing Fort Worth Center
Sun 12:29:16 AM 33.0839 -96.1664 51° Northeast 388 447 17,000 1,800 Climbing Fort Worth Center
Sun 12:30:16 AM 33.1558 -96.0611 60° Northeast 403 464 18,600 1,600 Climbing Fort Worth Center
Sun 12:31:16 AM 33.2172 -95.9361 68° East 416 479 20,200 1,550 Climbing Fort Worth Center
Sun 12:32:16 AM 33.2636 -95.7986 69° East 436 502 21,700 1,565 Climbing Fort Worth Center
Sun 12:32:41 AM 33.2849 -95.7289 68° East 22,400 1,636 Climbing FlightAware ADS-B
Sun 12:33:11 AM 33.3092 -95.6570 63° Northeast 469 540 23,200 1,543 Climbing FlightAware ADS-B
Sun 12:33:16 AM 33.3117 -95.6511 66° East 465 535 23,300 1,412 Climbing Fort Worth Center
Sun 12:33:45 AM 33.3392 -95.5756 59° Northeast 468 539 24,000 1,200 Climbing FlightAware ADS-B
Sun 12:34:16 AM 33.3700 -95.5131 55° Northeast 471 542 24,500 1,273 Climbing Fort Worth Center
Sun 12:34:18 AM 33.3767 -95.5015 53° Northeast 482 555 24,700 1,200 Climbing FlightAware ADS-B
Sun 12:35:16 AM 33.4494 -95.3869 51° Northeast 466 536 25,700 1,068 Climbing Fort Worth Center
Sun 12:36:16 AM 33.5372 -95.2578 51° Northeast 477 549 26,800 1,100 Climbing Fort Worth Center
Sun 12:37:16 AM 33.6267 -95.1258 52° Northeast 495 570 27,900 1,100 Climbing Fort Worth Center
Sun 12:38:16 AM 33.7139 -94.9914 52° Northeast 500 575 29,000 1,100 Climbing Fort Worth Center
Sun 12:39:16 AM 33.8050 -94.8514 52° Northeast 512 589 30,100 1,250 Climbing Fort Worth Center
Sun 12:40:16 AM 33.8939 -94.7136 51° Northeast 517 595 31,500 1,250 Climbing Fort Worth Center
Sun 12:41:16 AM 33.9828 -94.5806 52° Northeast 517 595 32,600 1,079 Climbing Fort Worth Center
Sun 12:42:35 AM 34.0881 -94.4150 52° Northeast 534 615 34,000 950 Climbing Memphis Center
Sun 12:43:35 AM 34.1781 -94.2764 53° Northeast 521 600 34,800 500 Climbing Memphis Center
Sun 12:44:35 AM 34.2658 -94.1344 51° Northeast 521 600 35,000 100 Climbing Memphis Center
Sun 12:45:35 AM 34.3556 -94.0000 54° Northeast 521 600 35,000  Level Memphis Center
Sun 12:46:35 AM 34.4386 -93.8625 52° Northeast 521 600 35,000  Level Memphis Center
Sun 12:47:35 AM 34.5258 -93.7275 52° Northeast 511 588 35,000  Level Memphis Center
Sun 12:48:35 AM 34.6108 -93.5947 52° Northeast 506 582 35,000  Level Memphis Center
Sun 12:49:35 AM 34.6933 -93.4639 53° Northeast 495 570 35,000  Level Memphis Center
Sun 12:50:35 AM 34.7781 -93.3253 52° Northeast 500 575 35,000  Level Memphis Center
Sun 12:51:35 AM 34.8606 -93.1942 52° Northeast 500 575 35,000  Level Memphis Center
Sun 12:52:35 AM 34.9469 -93.0603 53° Northeast 500 575 35,000  Level Memphis Center
Sun 12:53:35 AM 35.0289 -92.9261 54° Northeast 500 575 35,000  Level Memphis Center
Sun 12:54:35 AM 35.1111 -92.7889 53° Northeast 500 575 35,000  Level Memphis Center
Sun 12:55:35 AM 35.1950 -92.6542 53° Northeast 495 570 35,000  Level Memphis Center
Sun 12:56:35 AM 35.2808 -92.5164 52° Northeast 500 575 35,000  Level Memphis Center
Sun 12:57:35 AM 35.3750 -92.3661 53° Northeast 500 575 35,000  Level Memphis Center
Sun 12:58:35 AM 35.4586 -92.2281 53° Northeast 500 575 35,000  Level Memphis Center
Sun 12:59:35 AM 35.5419 -92.0919 54° Northeast 500 575 35,000  Level Memphis Center
Sun 01:00:35 AM 35.6231 -91.9558 53° Northeast 500 575 35,000  Level Memphis Center
Sun 01:01:35 AM 35.7058 -91.8194 54° Northeast 495 570 35,000  Level Memphis Center
Sun 01:02:35 AM 35.7867 -91.6825 53° Northeast 500 575 35,000  Level Memphis Center
Sun 01:03:35 AM 35.8714 -91.5456 54° Northeast 500 575 35,000  Level Memphis Center
Sun 01:04:35 AM 35.9350 -91.4364 54° Northeast 500 575 35,000  Level Memphis Center
Sun 01:05:35 AM 36.0217 -91.2886 53° Northeast 494 568 35,000  Level Memphis Center
Sun 01:06:35 AM 36.1039 -91.1533 56° Northeast 494 568 35,000  Level Memphis Center
Sun 01:07:35 AM 36.1797 -91.0153 53° Northeast 494 568 35,000  Level Memphis Center
Sun 01:08:35 AM 36.2597 -90.8819 53° Northeast 494 568 35,000  Level Memphis Center
Sun 01:09:35 AM 36.3414 -90.7461 54° Northeast 494 568 35,000  Level Memphis Center
Sun 01:10:35 AM 36.4211 -90.6097 53° Northeast 494 568 35,000  Level Memphis Center
Sun 01:11:35 AM 36.5025 -90.4731 55° Northeast 494 568 35,000  Level Memphis Center
Sun 01:12:35 AM 36.5881 -90.3233 54° Northeast 494 568 35,000  Level Memphis Center
Sun 01:13:35 AM 36.6692 -90.1861 55° Northeast 494 568 35,000  Level Memphis Center
Sun 01:14:35 AM 36.7461 -90.0489 54° Northeast 494 568 35,000  Level Memphis Center
Sun 01:15:35 AM 36.8269 -89.9086 54° Northeast 494 568 35,000  Level Memphis Center
Sun 01:16:35 AM 36.9075 -89.7681 54° Northeast 499 574 35,000  Level Memphis Center
Sun 01:17:35 AM 36.9881 -89.6272 55° Northeast 499 574 35,000  Level Memphis Center
Sun 01:18:35 AM 37.0683 -89.4858 54° Northeast 499 574 35,000  Level Memphis Center
Sun 01:19:35 AM 37.1528 -89.3394 55° Northeast 499 574 35,000  Level Memphis Center
Sun 01:20:35 AM 37.2328 -89.1975 56° Northeast 499 574 35,000  Level Memphis Center
Sun 01:21:35 AM 37.3125 -89.0503 54° Northeast 499 574 35,000  Level Memphis Center
Sun 01:22:35 AM 37.3942 -88.9081 55° Northeast 504 580 35,000  Level Memphis Center
Sun 01:23:35 AM 37.4758 -88.7603 55° Northeast 504 580 35,000  Level Memphis Center
Sun 01:24:35 AM 37.5569 -88.6122 56° Northeast 499 574 35,000  Level Memphis Center
Sun 01:25:35 AM 37.6361 -88.4636 55° Northeast 499 574 35,000  Level Memphis Center
Sun 01:26:35 AM 37.7192 -88.3122 54° Northeast 504 580 35,000  Level Memphis Center
Sun 01:27:35 AM 37.7858 -88.1978 57° Northeast 509 586 35,000  Level Memphis Center
Sun 01:28:49 AM 37.8950 -87.9814 56° Northeast 515 593 35,000  Level Indianapolis Center
Sun 01:29:49 AM 37.9758 -87.8281 56° Northeast 515 593 35,000  Level Indianapolis Center
Sun 01:30:49 AM 38.0583 -87.6747 56° Northeast 520 598 35,000  Level Indianapolis Center
Sun 01:31:49 AM 38.1297 -87.5414 56° Northeast 515 593 35,000  Level Indianapolis Center
Sun 01:32:49 AM 38.2100 -87.3869 55° Northeast 520 598 35,000  Level Indianapolis Center
Sun 01:33:49 AM 38.2897 -87.2406 58° Northeast 514 592 35,000  Level Indianapolis Center
Sun 01:34:49 AM 38.3789 -87.0594 55° Northeast 530 610 35,000  Level Indianapolis Center
Sun 01:35:49 AM 38.4647 -86.9017 56° Northeast 542 624 35,000  Level Indianapolis Center
Sun 01:36:49 AM 38.5442 -86.7486 57° Northeast 534 615 35,000  Level Indianapolis Center
Sun 01:37:49 AM 38.6233 -86.5928 56° Northeast 528 608 35,000  Level Indianapolis Center
Sun 01:38:49 AM 38.7044 -86.4364 57° Northeast 523 602 35,000  Level Indianapolis Center
Sun 01:39:49 AM 38.7831 -86.2822 57° Northeast 517 595 35,000  Level Indianapolis Center
Sun 01:40:49 AM 38.8617 -86.1281 58° Northeast 517 595 35,000  Level Indianapolis Center
Sun 01:41:49 AM 38.9358 -85.9731 56° Northeast 517 595 35,000  Level Indianapolis Center
Sun 01:42:49 AM 39.0075 -85.8339 57° Northeast 517 595 35,000  Level Indianapolis Center
Sun 01:43:49 AM 39.0875 -85.6758 57° Northeast 517 595 35,000  Level Indianapolis Center
Sun 01:44:49 AM 39.1697 -85.5122 58° Northeast 529 609 35,000  Level Indianapolis Center
Sun 01:45:49 AM 39.2492 -85.3508 57° Northeast 534 615 35,000  Level Indianapolis Center
Sun 01:46:49 AM 39.3308 -85.1864 58° Northeast 534 615 35,000  Level Indianapolis Center
Sun 01:47:49 AM 39.4103 -85.0189 57° Northeast 539 620 35,000  Level Indianapolis Center
Sun 01:48:49 AM 39.5000 -84.8406 57° Northeast 534 615 35,000  Level Indianapolis Center
Sun 01:49:49 AM 39.5808 -84.6803 58° Northeast 534 615 35,000  Level Indianapolis Center
Sun 01:50:49 AM 39.6594 -84.5144 57° Northeast 534 615 35,000  Level Indianapolis Center
Sun 01:51:49 AM 39.7397 -84.3508 58° Northeast 534 615 35,000  Level Indianapolis Center
Sun 01:52:49 AM 39.8178 -84.1867 58° Northeast 540 621 35,000  Level Indianapolis Center
Sun 01:53:49 AM 39.8875 -84.0386 58° Northeast 534 615 35,000  Level Indianapolis Center
Sun 01:54:49 AM 39.9672 -83.8739 59° Northeast 529 609 35,000  Level Indianapolis Center
Sun 01:55:49 AM 40.0447 -83.7061 59° Northeast 535 616 35,000  Level Indianapolis Center
Sun 01:56:49 AM 40.1281 -83.5272 59° Northeast 529 609 35,000  Level Indianapolis Center
Sun 01:57:49 AM 40.2050 -83.3586 59° Northeast 529 609 35,000  Level Indianapolis Center
Sun 01:58:49 AM 40.2797 -83.1953 59° Northeast 534 615 35,000  Level Indianapolis Center
Sun 01:59:49 AM 40.3542 -83.0314 59° Northeast 534 615 35,000  Level Indianapolis Center
Sun 02:00:49 AM 40.4325 -82.8617 58° Northeast 534 615 35,000  Level Indianapolis Center
Sun 02:01:49 AM 40.5086 -82.6997 59° Northeast 534 615 35,000  Level Indianapolis Center
Sun 02:02:49 AM 40.5883 -82.5267 60° Northeast 534 615 35,000  Level Indianapolis Center
Sun 02:03:49 AM 40.6639 -82.3558 59° Northeast 534 615 35,000  Level Indianapolis Center
Sun 02:04:49 AM 40.7411 -82.1847 60° Northeast 541 623 35,000  Level Indianapolis Center
Sun 02:05:49 AM 40.8161 -82.0106 59° Northeast 546 628 35,000  Level Indianapolis Center
Sun 02:06:49 AM 40.8950 -81.8331 60° Northeast 546 628 35,000  Level Indianapolis Center
Sun 02:07:49 AM 40.9736 -81.6550 60° Northeast 551 634 35,000  Level Indianapolis Center
Sun 02:08:49 AM 41.0497 -81.4797 60° Northeast 556 640 35,000  Level Indianapolis Center
Sun 02:09:49 AM 41.1258 -81.3064 60° Northeast 556 640 35,000  Level Indianapolis Center
Sun 02:10:49 AM 41.1994 -81.1358 60° Northeast 544 626 35,000  Level Indianapolis Center
Sun 02:11:49 AM 41.2731 -80.9647 60° Northeast 537 618 35,000  Level Indianapolis Center
Sun 02:12:49 AM 41.3442 -80.7992 61° Northeast 521 600 35,000  Level Indianapolis Center
Sun 02:13:49 AM 41.4133 -80.6358 61° Northeast 513 590 35,000  Level Indianapolis Center
Sun 02:14:49 AM 41.4819 -80.4722 59° Northeast 513 590 35,000  Level Indianapolis Center
Sun 02:15:49 AM 41.5567 -80.3025 60° Northeast 513 590 35,000  Level Indianapolis Center
Sun 02:16:49 AM 41.6289 -80.1322 60° Northeast 513 590 35,000  Level Indianapolis Center
Sun 02:17:49 AM 41.6875 -79.9961 360° North 513 590 35,000  Level Indianapolis Center
Sun 02:18:49 AM 41.6875 -79.9961 360° North 513 590 35,000  Level Indianapolis Center
Sun 02:19:49 AM 41.6875 -79.9961 360° North 513 590 35,000  Level Indianapolis Center
Sun 02:20:49 AM 41.6875 -79.9961 360° North 513 590 35,000  Level Indianapolis Center
Sun 02:21:49 AM 41.6875 -79.9961 360° North 513 590 35,000  Level Indianapolis Center
Sun 02:22:49 AM 41.6875 -79.9961 360° North 513 590 35,000  Level Indianapolis Center
Sun 02:23:49 AM 41.6875 -79.9961 360° North 513 590 35,000  Level Indianapolis Center
Sun 02:24:49 AM 41.6875 -79.9961 360° North 513 590 35,000  Level Indianapolis Center
Sun 02:25:49 AM 41.6875 -79.9961 360° North 513 590 35,000  Level Indianapolis Center
Sun 02:26:49 AM 41.6875 -79.9961 360° North 513 590 35,000  Level Indianapolis Center
Sun 02:27:49 AM 41.6875 -79.9961 360° North 513 590 35,000  Level Indianapolis Center
Sun 02:28:49 AM 41.6875 -79.9961 360° North 513 590 35,000  Level Indianapolis Center
Sun 02:29:49 AM 41.6875 -79.9961 360° North 513 590 35,000  Level Indianapolis Center
Sun 02:30:49 AM 41.6875 -79.9961 360° North 513 590 35,000  Level Indianapolis Center
Sun 02:31:49 AM 41.6875 -79.9961 360° North 513 590 35,000  Level Indianapolis Center
Sun 02:32:49 AM 41.6875 -79.9961 360° North 513 590 35,000  Level Indianapolis Center
Sun 02:33:49 AM 41.6875 -79.9961 360° North 513 590 35,000  Level Indianapolis Center
Sun 02:34:49 AM 41.6875 -79.9961 360° North 513 590 35,000  Level Indianapolis Center
Sun 02:35:49 AM 41.6875 -79.9961 360° North 513 590 35,000  Level Indianapolis Center
Sun 02:36:49 AM 41.6875 -79.9961 360° North 513 590 35,000  Level Indianapolis Center
Sun 02:37:49 AM 41.6875 -79.9961 360° North 513 590 35,000  Level Indianapolis Center
Sun 02:38:49 AM 41.6875 -79.9961 360° North 513 590 35,000  Level Indianapolis Center
Sun 02:39:49 AM 41.6875 -79.9961 360° North 513 590 35,000  Level Indianapolis Center
Sun 02:40:49 AM 41.6875 -79.9961 360° North 513 590 35,000  Level Indianapolis Center
Sun 02:41:49 AM 41.6875 -79.9961 360° North 513 590 35,000  Level Indianapolis Center
Sun 02:42:49 AM 41.6875 -79.9961 360° North 513 590 35,000  Level Indianapolis Center
Sun 02:43:49 AM 41.6875 -79.9961 360° North 513 590 35,000  Level Indianapolis Center
Sun 02:44:49 AM 41.6875 -79.9961 360° North 513 590 35,000  Level Indianapolis Center
Sun 02:45:49 AM 41.6875 -79.9961 360° North 513 590 35,000  Level Indianapolis Center
Sun 02:46:49 AM 41.6875 -79.9961 360° North 513 590 35,000  Level Indianapolis Center
Sun 02:47:49 AM 41.6875 -79.9961 57° Northeast 513 590 35,000 1,165 Level Indianapolis Center
Sun 02:48:32 AM 44.1000 -74.6167 55° Northeast 540 621 37,000 1,165 Climbing Montreal Center
Sun 02:49:32 AM 44.1833 -74.4500 55° Northeast 540 621 37,000  Level Montreal Center
Sun 02:50:32 AM 44.2667 -74.2833 50° Northeast 540 621 37,000  Level Montreal Center
Sun 02:51:32 AM 44.3667 -74.1167 43° Northeast 540 621 37,000  Level Montreal Center
Sun 02:52:32 AM 44.4833 -73.9667 44° Northeast 540 621 37,000  Level Montreal Center
Sun 02:53:32 AM 44.5833 -73.8333 47° Northeast 540 621 37,000  Level Montreal Center
Sun 02:54:32 AM 44.6833 -73.6833 45° Northeast 540 621 37,000  Level Montreal Center
Sun 02:55:32 AM 44.8000 -73.5167 52° Northeast 540 621 37,000  Level Montreal Center
Sun 02:56:32 AM 44.8833 -73.3667 45° Northeast 550 633 37,000  Level Montreal Center
Sun 02:57:32 AM 45.0000 -73.2000 47° Northeast 540 621 37,000  Level Montreal Center
Sun 02:58:32 AM 45.1000 -73.0500 45° Northeast 550 633 37,000  Level Montreal Center
Sun 02:59:32 AM 45.2167 -72.8833 46° Northeast 550 633 37,000  Level Montreal Center
Sun 03:00:32 AM 45.3167 -72.7333 46° Northeast 550 633 37,000  Level Montreal Center
Sun 03:01:32 AM 45.4167 -72.5833 52° Northeast 550 633 37,000  Level Montreal Center
Sun 03:02:32 AM 45.5167 -72.4000 42° Northeast 550 633 37,000  Level Montreal Center
Sun 03:03:32 AM 45.6333 -72.2500 54° Northeast 550 633 37,000  Level Montreal Center
Sun 03:04:32 AM 45.7167 -72.0833 42° Northeast 550 633 37,000  Level Montreal Center
Sun 03:05:32 AM 45.8333 -71.9333 47° Northeast 550 633 37,000  Level Montreal Center
Sun 03:06:32 AM 45.9500 -71.7500 51° Northeast 550 633 37,000  Level Montreal Center
Sun 03:07:32 AM 46.0333 -71.6000 49° Northeast 550 633 37,000  Level Montreal Center
Sun 03:08:32 AM 46.1333 -71.4333 45° Northeast 550 633 37,000  Level Montreal Center
Sun 03:09:32 AM 46.2500 -71.2667 54° Northeast 550 633 37,000  Level Montreal Center
Sun 03:10:32 AM 46.3333 -71.1000 45° Northeast 550 633 37,000  Level Montreal Center
Sun 03:11:32 AM 46.4500 -70.9333 54° Northeast 550 633 37,000  Level Montreal Center
Sun 03:12:32 AM 46.5333 -70.7667 41° Northeast 550 633 37,000  Level Montreal Center
Sun 03:13:32 AM 46.6500 -70.6167 51° Northeast 550 633 37,000  Level Montreal Center
Sun 03:14:32 AM 46.7500 -70.4333 49° Northeast 550 633 37,000  Level Montreal Center
Sun 03:15:32 AM 46.8500 -70.2667 46° Northeast 550 633 37,000  Level Montreal Center
Sun 03:16:32 AM 46.9500 -70.1167 51° Northeast 550 633 37,000  Level Montreal Center
Sun 03:17:32 AM 47.0500 -69.9333 49° Northeast 550 633 37,000  Level Montreal Center
Sun 03:18:32 AM 47.1500 -69.7667 48° Northeast 550 633 37,000  Level Montreal Center
Sun 03:19:32 AM 47.2500 -69.6000 51° Northeast 540 621 37,000  Level Montreal Center
Sun 03:20:32 AM 47.3500 -69.4167 48° Northeast 540 621 37,000  Level Montreal Center
Sun 03:21:32 AM 47.4500 -69.2500 56° Northeast 540 621 37,000  Level Montreal Center
Sun 03:22:32 AM 47.5333 -69.0667 44° Northeast 540 621 37,000  Level Montreal Center
Sun 03:23:32 AM 47.6500 -68.9000 50° Northeast 540 621 37,000  Level Montreal Center
Sun 03:24:32 AM 47.7333 -68.7500 53° Northeast 540 621 37,000  Level Montreal Center
Sun 03:25:32 AM 47.8333 -68.5500 48° Northeast 540 621 37,000  Level Montreal Center
Sun 03:26:32 AM 47.9333 -68.3833 53° Northeast 540 621 37,000  Level Montreal Center
Sun 03:27:32 AM 48.0167 -68.2167 51° Northeast 540 621 37,000  Level Montreal Center
Sun 03:28:32 AM 48.1167 -68.0333 48° Northeast 540 621 37,000  Level Montreal Center
Sun 03:29:32 AM 48.2167 -67.8667 48° Northeast 540 621 37,000  Level Montreal Center
Sun 03:30:32 AM 48.3167 -67.7000 58° Northeast 540 621 37,000  Level Montreal Center
Sun 03:31:32 AM 48.4000 -67.5000 43° Northeast 540 621 37,000  Level Montreal Center
Sun 03:32:32 AM 48.5167 -67.3333 53° Northeast 540 621 37,000  Level Montreal Center
Sun 03:33:32 AM 48.6000 -67.1667 53° Northeast 540 621 37,000  Level Montreal Center
Sun 03:34:32 AM 48.7000 -66.9667 53° Northeast 540 621 37,000  Level Montreal Center
Sun 03:35:32 AM 48.7833 -66.8000 50° Northeast 540 621 37,000  Level Montreal Center
Sun 03:36:32 AM 48.8833 -66.6167 48° Northeast 540 621 37,000  Level Montreal Center
Sun 03:37:32 AM 48.9833 -66.4500 55° Northeast 540 621 37,000  Level Montreal Center
Sun 03:38:32 AM 49.0667 -66.2667 53° Northeast 540 621 37,000  Level Montreal Center
Sun 03:39:32 AM 49.1667 -66.0667 53° Northeast 540 621 37,000  Level Montreal Center
Sun 03:40:32 AM 49.2500 -65.9000 50° Northeast 540 621 37,000  Level Montreal Center
Sun 03:41:32 AM 49.3500 -65.7167 52° Northeast 530 610 37,000  Level Montreal Center
Sun 03:42:32 AM 49.4333 -65.5500 57° Northeast 530 610 37,000  Level Montreal Center
Sun 03:43:32 AM 49.5167 -65.3500 55° Northeast 530 610 37,000  Level Montreal Center
Sun 03:44:32 AM 49.6000 -65.1667 50° Northeast 530 610 37,000  Level Montreal Center
Sun 03:45:32 AM 49.7000 -64.9833 47° Northeast 530 610 37,000  Level Montreal Center
Sun 03:46:32 AM 49.8000 -64.8167 50° Northeast 530 610 37,000  Level Montreal Center
Sun 03:47:32 AM 49.9000 -64.6333 55° Northeast 530 610 37,000  Level Montreal Center
Sun 03:48:32 AM 49.9833 -64.4500 59° Northeast 530 610 37,000  Level Montreal Center
Sun 03:49:32 AM 50.0667 -64.2333 52° Northeast 530 610 37,000  Level Montreal Center
Sun 03:50:32 AM 50.1500 -64.0667 55° Northeast 530 610 37,000  Level Montreal Center
Sun 03:51:32 AM 50.2333 -63.8833 54° Northeast 530 610 37,000  Level Montreal Center
Sun 03:52:32 AM 50.3167 -63.7000 54° Northeast 520 598 37,000  Level Montreal Center
Sun 03:53:32 AM 50.4000 -63.5167 49° Northeast 520 598 37,000  Level Montreal Center
Sun 03:54:32 AM 50.5000 -63.3333 54° Northeast 510 587 37,000  Level Montreal Center
Sun 03:55:32 AM 50.5833 -63.1500 54° Northeast 510 587 37,000  Level Montreal Center
Sun 03:56:32 AM 50.6667 -62.9667 54° Northeast 520 598 37,000  Level Montreal Center
Sun 03:57:32 AM 50.7500 -62.7833 57° Northeast 520 598 37,000  Level Montreal Center
Sun 03:58:32 AM 50.8333 -62.5833 60° Northeast 520 598 37,000  Level Montreal Center
Sun 03:59:32 AM 50.9000 -62.4000 49° Northeast 520 598 37,000  Level Montreal Center
Sun 04:00:32 AM 50.9833 -62.2500 54° Northeast 510 587 37,000  Level Montreal Center
Sun 04:01:32 AM 51.0833 -62.0333 57° Northeast 510 587 37,000  Level Montreal Center
Sun 04:02:32 AM 51.1500 -61.8667 54° Northeast 510 587 37,000  Level Montreal Center
Sun 04:03:32 AM 51.2333 -61.6833 56° Northeast 500 575 37,000  Level Montreal Center
Sun 04:04:32 AM 51.3167 -61.4833 54° Northeast 500 575 37,000  Level Montreal Center
Sun 04:05:32 AM 51.4000 -61.3000 60° Northeast 500 575 37,000  Level Montreal Center
Sun 04:06:32 AM 51.4667 -61.1167 57° Northeast 500 575 37,000  Level Montreal Center
Sun 04:07:32 AM 51.5333 -60.9500 51° Northeast 490 564 37,000  Level Montreal Center
Sun 04:08:32 AM 51.6333 -60.7500 240° Southwest 490 564 37,000 -876 Level Montreal Center
Sun 04:09:49 AM 41.6875 -79.9961 360° North 513 590 35,000 -876 Descending Indianapolis Center
Sun 04:10:49 AM 41.6875 -79.9961 360° North 513 590 35,000  Level Indianapolis Center
Sun 04:11:49 AM 41.6875 -79.9961 360° North 513 590 35,000  Level Indianapolis Center
Sun 04:12:49 AM 41.6875 -79.9961 360° North 513 590 35,000  Level Indianapolis Center
Sun 04:13:49 AM 41.6875 -79.9961 360° North 513 590 35,000  Level Indianapolis Center
Sun 04:14:49 AM 41.6875 -79.9961 360° North 513 590 35,000  Level Indianapolis Center
Sun 04:15:49 AM 41.6875 -79.9961 360° North 513 590 35,000  Level Indianapolis Center
Sun 04:16:49 AM 41.6875 -79.9961 360° North 513 590 35,000  Level Indianapolis Center
Sun 04:17:49 AM 41.6875 -79.9961 360° North 513 590 35,000  Level Indianapolis Center
Sun 04:18:49 AM 41.6875 -79.9961 360° North 513 590 35,000  Level Indianapolis Center
Sun 04:19:49 AM 41.6875 -79.9961 360° North 513 590 35,000  Level Indianapolis Center
Sun 04:20:49 AM 41.6875 -79.9961 360° North 513 590 35,000  Level Indianapolis Center
Sun 04:21:49 AM 41.6875 -79.9961 360° North 513 590 35,000  Level Indianapolis Center
Sun 04:22:49 AM 41.6875 -79.9961 360° North 513 590 35,000  Level Indianapolis Center
Sun 04:23:49 AM 41.6875 -79.9961 360° North 513 590 35,000  Level Indianapolis Center
Sun 04:24:49 AM 41.6875 -79.9961 360° North 513 590 35,000  Level Indianapolis Center
Sun 04:25:49 AM 41.6875 -79.9961 360° North 513 590 35,000  Level Indianapolis Center
Sun 04:26:49 AM 41.6875 -79.9961 360° North 513 590 35,000  Level Indianapolis Center
Sun 04:27:49 AM 41.6875 -79.9961 360° North 513 590 35,000  Level Indianapolis Center
Sun 04:28:49 AM 41.6875 -79.9961 360° North 513 590 35,000  Level Indianapolis Center
Sun 04:29:49 AM 41.6875 -79.9961 360° North 513 590 35,000  Level Indianapolis Center
Sun 04:30:49 AM 41.6875 -79.9961 360° North 513 590 35,000  Level Indianapolis Center
Sun 04:31:49 AM 41.6875 -79.9961 360° North 513 590 35,000  Level Indianapolis Center
Sun 04:32:49 AM 41.6875 -79.9961 360° North 513 590 35,000  Level Indianapolis Center
Sun 04:33:49 AM 41.6875 -79.9961 360° North 513 590 35,000  Level Indianapolis Center
Sun 04:34:49 AM 41.6875 -79.9961 360° North 513 590 35,000  Level Indianapolis Center
Sun 04:35:49 AM 41.6875 -79.9961 360° North 513 590 35,000  Level Indianapolis Center
Sun 04:36:49 AM 41.6875 -79.9961 360° North 513 590 35,000  Level Indianapolis Center
Sun 04:37:49 AM 41.6875 -79.9961 360° North 513 590 35,000  Level Indianapolis Center
Sun 04:38:49 AM 41.6875 -79.9961 45° Northeast 513 590 35,000 1,513 Level Indianapolis Center
Sun 04:39:48 AM 53.8667 -54.9667 244° Southwest 484 557 38,000  Climbing ETMS Transoceanic Report
Sun 04:39:49 AM 41.6875 -79.9961 360° North 513 590 35,000 -2,951 Descending Indianapolis Center
Sun 04:40:49 AM 41.6875 -79.9961 360° North 513 590 35,000  Level Indianapolis Center
Sun 04:41:49 AM 41.6875 -79.9961 360° North 513 590 35,000  Level Indianapolis Center
Sun 04:42:49 AM 41.6875 -79.9961 360° North 513 590 35,000  Level Indianapolis Center
Sun 04:43:49 AM 41.6875 -79.9961 360° North 513 590 35,000  Level Indianapolis Center
Sun 04:44:49 AM 41.6875 -79.9961 360° North 513 590 35,000  Level Indianapolis Center
Sun 04:45:49 AM 41.6875 -79.9961 360° North 513 590 35,000  Level Indianapolis Center
Sun 04:46:49 AM 41.6875 -79.9961 360° North 513 590 35,000  Level Indianapolis Center
Sun 04:47:49 AM 41.6875 -79.9961 360° North 513 590 35,000  Level Indianapolis Center
Sun 04:48:49 AM 41.6875 -79.9961 360° North 513 590 35,000  Level Indianapolis Center
Sun 04:49:49 AM 41.6875 -79.9961 360° North 513 590 35,000  Level Indianapolis Center
Sun 04:50:49 AM 41.6875 -79.9961 360° North 513 590 35,000  Level Indianapolis Center
Sun 04:51:49 AM 41.6875 -79.9961 360° North 513 590 35,000  Level Indianapolis Center
Sun 04:52:49 AM 41.6875 -79.9961 360° North 513 590 35,000  Level Indianapolis Center
Sun 04:53:49 AM 41.6875 -79.9961 360° North 513 590 35,000  Level Indianapolis Center
Sun 04:54:49 AM 41.6875 -79.9961 360° North 513 590 35,000  Level Indianapolis Center
Sun 04:55:49 AM 41.6875 -79.9961 360° North 513 590 35,000  Level Indianapolis Center
Sun 04:56:49 AM 41.6875 -79.9961 360° North 513 590 35,000  Level Indianapolis Center
Sun 04:57:49 AM 41.6875 -79.9961 360° North 513 590 35,000  Level Indianapolis Center
Sun 04:58:49 AM 41.6875 -79.9961 360° North 513 590 35,000  Level Indianapolis Center
Sun 04:59:49 AM 41.6875 -79.9961 360° North 513 590 35,000  Level Indianapolis Center
Sun 05:00:49 AM 41.6875 -79.9961 360° North 513 590 35,000  Level Indianapolis Center
Sun 05:01:49 AM 41.6875 -79.9961 360° North 513 590 35,000  Level Indianapolis Center
Sun 05:02:49 AM 41.6875 -79.9961 360° North 513 590 35,000  Level Indianapolis Center
Sun 05:03:49 AM 41.6875 -79.9961 360° North 513 590 35,000  Level Indianapolis Center
Sun 05:04:49 AM 41.6875 -79.9961 360° North 513 590 35,000  Level Indianapolis Center
Sun 05:05:49 AM 41.6875 -79.9961 43° Northeast 513 590 35,000 1,224 Level Indianapolis Center
Sun 05:06:27 AM 56.0000 -50.0000 246° West 503 579 37,000  Climbing ETMS Transoceanic Report
Sun 05:07:49 AM 41.6875 -79.9961 360° North 513 590 35,000 -845 Descending Indianapolis Center
Sun 05:08:49 AM 41.6875 -79.9961 360° North 513 590 35,000  Level Indianapolis Center
Sun 05:09:49 AM 41.6875 -79.9961 360° North 513 590 35,000  Level Indianapolis Center
Sun 05:10:49 AM 41.6875 -79.9961 360° North 513 590 35,000  Level Indianapolis Center
Sun 05:11:49 AM 41.6875 -79.9961 360° North 513 590 35,000  Level Indianapolis Center
Sun 05:12:49 AM 41.6875 -79.9961 360° North 513 590 35,000  Level Indianapolis Center
Sun 05:13:49 AM 41.6875 -79.9961 360° North 513 590 35,000  Level Indianapolis Center
Sun 05:14:49 AM 41.6875 -79.9961 360° North 513 590 35,000  Level Indianapolis Center
Sun 05:15:49 AM 41.6875 -79.9961 360° North 513 590 35,000  Level Indianapolis Center
Sun 05:16:49 AM 41.6875 -79.9961 360° North 513 590 35,000  Level Indianapolis Center
Sun 05:17:49 AM 41.6875 -79.9961 360° North 513 590 35,000  Level Indianapolis Center
Sun 05:18:49 AM 41.6875 -79.9961 360° North 513 590 35,000  Level Indianapolis Center
Sun 05:19:49 AM 41.6875 -79.9961 360° North 513 590 35,000  Level Indianapolis Center
Sun 05:20:49 AM 41.6875 -79.9961 360° North 513 590 35,000  Level Indianapolis Center
Sun 05:21:49 AM 41.6875 -79.9961 360° North 513 590 35,000  Level Indianapolis Center
Sun 05:22:49 AM 41.6875 -79.9961 360° North 513 590 35,000  Level Indianapolis Center
Sun 05:23:49 AM 41.6875 -79.9961 360° North 513 590 35,000  Level Indianapolis Center
Sun 05:24:49 AM 41.6875 -79.9961 360° North 513 590 35,000  Level Indianapolis Center
Sun 05:25:49 AM 41.6875 -79.9961 360° North 513 590 35,000  Level Indianapolis Center
Sun 05:26:49 AM 41.6875 -79.9961 360° North 513 590 35,000  Level Indianapolis Center
Sun 05:27:49 AM 41.6875 -79.9961 360° North 513 590 35,000  Level Indianapolis Center
Sun 05:28:49 AM 41.6875 -79.9961 360° North 513 590 35,000  Level Indianapolis Center
Sun 05:29:49 AM 41.6875 -79.9961 360° North 513 590 35,000  Level Indianapolis Center
Sun 05:30:49 AM 41.6875 -79.9961 360° North 513 590 35,000  Level Indianapolis Center
Sun 05:31:49 AM 41.6875 -79.9961 360° North 513 590 35,000  Level Indianapolis Center
Sun 05:32:49 AM 41.6875 -79.9961 360° North 513 590 35,000  Level Indianapolis Center
Sun 05:33:49 AM 41.6875 -79.9961 360° North 513 590 35,000  Level Indianapolis Center
Sun 05:34:49 AM 41.6875 -79.9961 360° North 513 590 35,000  Level Indianapolis Center
Sun 05:35:49 AM 41.6875 -79.9961 360° North 513 590 35,000  Level Indianapolis Center
Sun 05:36:49 AM 41.6875 -79.9961 360° North 513 590 35,000  Level Indianapolis Center
Sun 05:37:49 AM 41.6875 -79.9961 360° North 513 590 35,000  Level Indianapolis Center
Sun 05:38:49 AM 41.6875 -79.9961 360° North 513 590 35,000  Level Indianapolis Center
Sun 05:39:49 AM 41.6875 -79.9961 360° North 513 590 35,000  Level Indianapolis Center
Sun 05:40:49 AM 41.6875 -79.9961 360° North 513 590 35,000  Level Indianapolis Center
Sun 05:41:49 AM 41.6875 -79.9961 360° North 513 590 35,000  Level Indianapolis Center
Sun 05:42:49 AM 41.6875 -79.9961 360° North 513 590 35,000  Level Indianapolis Center
Sun 05:43:49 AM 41.6875 -79.9961 360° North 513 590 35,000  Level Indianapolis Center
Sun 05:44:49 AM 41.6875 -79.9961 360° North 513 590 35,000  Level Indianapolis Center
Sun 05:45:49 AM 41.6875 -79.9961 360° North 513 590 35,000  Level Indianapolis Center
Sun 05:46:49 AM 41.6875 -79.9961 360° North 513 590 35,000  Level Indianapolis Center
Sun 05:47:49 AM 41.6875 -79.9961 360° North 513 590 35,000  Level Indianapolis Center
Sun 05:48:49 AM 41.6875 -79.9961 41° Northeast 513 590 35,000 1,062 Level Indianapolis Center
Sun 05:49:42 AM 59.0000 -40.0000 253° West 560 644 37,000  Climbing ETMS Transoceanic Report
Sun 05:49:49 AM 41.6875 -79.9961 360° North 513 590 35,000 -1,791 Descending Indianapolis Center
Sun 05:50:49 AM 41.6875 -79.9961 360° North 513 590 35,000  Level Indianapolis Center
Sun 05:51:49 AM 41.6875 -79.9961 360° North 513 590 35,000  Level Indianapolis Center
Sun 05:52:49 AM 41.6875 -79.9961 360° North 513 590 35,000  Level Indianapolis Center
Sun 05:53:49 AM 41.6875 -79.9961 360° North 513 590 35,000  Level Indianapolis Center
Sun 05:54:49 AM 41.6875 -79.9961 360° North 513 590 35,000  Level Indianapolis Center
Sun 05:55:49 AM 41.6875 -79.9961 360° North 513 590 35,000  Level Indianapolis Center
Sun 05:56:49 AM 41.6875 -79.9961 360° North 513 590 35,000  Level Indianapolis Center
Sun 05:57:49 AM 41.6875 -79.9961 360° North 513 590 35,000  Level Indianapolis Center
Sun 05:58:49 AM 41.6875 -79.9961 360° North 513 590 35,000  Level Indianapolis Center
Sun 05:59:49 AM 41.6875 -79.9961 360° North 513 590 35,000  Level Indianapolis Center
Sun 06:00:49 AM 41.6875 -79.9961 360° North 513 590 35,000  Level Indianapolis Center
Sun 06:01:49 AM 41.6875 -79.9961 360° North 513 590 35,000  Level Indianapolis Center
Sun 06:02:49 AM 41.6875 -79.9961 360° North 513 590 35,000  Level Indianapolis Center
Sun 06:03:49 AM 41.6875 -79.9961 360° North 513 590 35,000  Level Indianapolis Center
Sun 06:04:49 AM 41.6875 -79.9961 360° North 513 590 35,000  Level Indianapolis Center
Sun 06:05:49 AM 41.6875 -79.9961 360° North 513 590 35,000  Level Indianapolis Center
Sun 06:06:49 AM 41.6875 -79.9961 360° North 513 590 35,000  Level Indianapolis Center
Sun 06:07:49 AM 41.6875 -79.9961 360° North 513 590 35,000  Level Indianapolis Center
Sun 06:08:49 AM 41.6875 -79.9961 360° North 513 590 35,000  Level Indianapolis Center
Sun 06:09:49 AM 41.6875 -79.9961 360° North 513 590 35,000  Level Indianapolis Center
Sun 06:10:49 AM 41.6875 -79.9961 360° North 513 590 35,000  Level Indianapolis Center
Sun 06:11:49 AM 41.6875 -79.9961 360° North 513 590 35,000  Level Indianapolis Center
Sun 06:12:49 AM 41.6875 -79.9961 360° North 513 590 35,000  Level Indianapolis Center
Sun 06:13:49 AM 41.6875 -79.9961 360° North 513 590 35,000  Level Indianapolis Center
Sun 06:14:49 AM 41.6875 -79.9961 360° North 513 590 35,000  Level Indianapolis Center
Sun 06:15:49 AM 41.6875 -79.9961 360° North 513 590 35,000  Level Indianapolis Center
Sun 06:16:49 AM 41.6875 -79.9961 360° North 513 590 35,000  Level Indianapolis Center
Sun 06:17:49 AM 41.6875 -79.9961 360° North 513 590 35,000  Level Indianapolis Center
Sun 06:18:49 AM 41.6875 -79.9961 360° North 513 590 35,000  Level Indianapolis Center
Sun 06:19:49 AM 41.6875 -79.9961 360° North 513 590 35,000  Level Indianapolis Center
Sun 06:20:49 AM 41.6875 -79.9961 360° North 513 590 35,000  Level Indianapolis Center
Sun 06:21:49 AM 41.6875 -79.9961 360° North 513 590 35,000  Level Indianapolis Center
Sun 06:22:49 AM 41.6875 -79.9961 360° North 513 590 35,000  Level Indianapolis Center
Sun 06:23:49 AM 41.6875 -79.9961 360° North 513 590 35,000  Level Indianapolis Center
Sun 06:24:49 AM 41.6875 -79.9961 360° North 513 590 35,000  Level Indianapolis Center
Sun 06:25:49 AM 41.6875 -79.9961 360° North 513 590 35,000  Level Indianapolis Center
Sun 06:26:49 AM 41.6875 -79.9961 38° Northeast 513 590 35,000 1,026 Level Indianapolis Center
Sun 06:27:46 AM 62.0000 -30.0000 259° West 548 631 37,000  Climbing ETMS Transoceanic Report
Sun 06:27:49 AM 41.6875 -79.9961 360° North 513 590 35,000 -1,905 Descending Indianapolis Center
Sun 06:28:49 AM 41.6875 -79.9961 360° North 513 590 35,000  Level Indianapolis Center
Sun 06:29:49 AM 41.6875 -79.9961 360° North 513 590 35,000  Level Indianapolis Center
Sun 06:30:49 AM 41.6875 -79.9961 360° North 513 590 35,000  Level Indianapolis Center
Sun 06:31:49 AM 41.6875 -79.9961 360° North 513 590 35,000  Level Indianapolis Center
Sun 06:32:49 AM 41.6875 -79.9961 360° North 513 590 35,000  Level Indianapolis Center
Sun 06:33:49 AM 41.6875 -79.9961 360° North 513 590 35,000  Level Indianapolis Center
Sun 06:34:49 AM 41.6875 -79.9961 360° North 513 590 35,000  Level Indianapolis Center
Sun 06:35:49 AM 41.6875 -79.9961 360° North 513 590 35,000  Level Indianapolis Center
Sun 06:36:49 AM 41.6875 -79.9961 360° North 513 590 35,000  Level Indianapolis Center
Sun 06:37:49 AM 41.6875 -79.9961 360° North 513 590 35,000  Level Indianapolis Center
Sun 06:38:49 AM 41.6875 -79.9961 360° North 513 590 35,000  Level Indianapolis Center
Sun 06:39:49 AM 41.6875 -79.9961 360° North 513 590 35,000  Level Indianapolis Center
Sun 06:40:49 AM 41.6875 -79.9961 360° North 513 590 35,000  Level Indianapolis Center
Sun 06:41:49 AM 41.6875 -79.9961 360° North 513 590 35,000  Level Indianapolis Center
Sun 06:42:49 AM 41.6875 -79.9961 360° North 513 590 35,000  Level Indianapolis Center
Sun 06:43:49 AM 41.6875 -79.9961 360° North 513 590 35,000  Level Indianapolis Center
Sun 06:44:49 AM 41.6875 -79.9961 360° North 513 590 35,000  Level Indianapolis Center
Sun 06:45:49 AM 41.6875 -79.9961 360° North 513 590 35,000  Level Indianapolis Center
Sun 06:46:49 AM 41.6875 -79.9961 360° North 513 590 35,000  Level Indianapolis Center
Sun 06:47:49 AM 41.6875 -79.9961 360° North 513 590 35,000  Level Indianapolis Center
Sun 06:48:49 AM 41.6875 -79.9961 360° North 513 590 35,000  Level Indianapolis Center
Sun 06:49:49 AM 41.6875 -79.9961 360° North 513 590 35,000  Level Indianapolis Center
Sun 06:50:49 AM 41.6875 -79.9961 360° North 513 590 35,000  Level Indianapolis Center
Sun 06:51:49 AM 41.6875 -79.9961 360° North 513 590 35,000  Level Indianapolis Center
Sun 06:52:49 AM 41.6875 -79.9961 360° North 513 590 35,000  Level Indianapolis Center
Sun 06:53:49 AM 41.6875 -79.9961 360° North 513 590 35,000  Level Indianapolis Center
Sun 06:54:49 AM 41.6875 -79.9961 360° North 513 590 35,000  Level Indianapolis Center
Sun 06:55:49 AM 41.6875 -79.9961 360° North 513 590 35,000  Level Indianapolis Center
Sun 06:56:49 AM 41.6875 -79.9961 360° North 513 590 35,000  Level Indianapolis Center
Sun 06:57:49 AM 41.6875 -79.9961 360° North 513 590 35,000  Level Indianapolis Center
Sun 06:58:49 AM 41.6875 -79.9961 360° North 513 590 35,000  Level Indianapolis Center
Sun 06:59:49 AM 41.6875 -79.9961 360° North 513 590 35,000  Level Indianapolis Center
Sun 07:00:49 AM 41.6875 -79.9961 360° North 513 590 35,000  Level Indianapolis Center
Sun 07:01:49 AM 41.6875 -79.9961 360° North 513 590 35,000  Level Indianapolis Center
Sun 07:02:49 AM 41.6875 -79.9961 360° North 513 590 35,000  Level Indianapolis Center
Sun 07:03:49 AM 41.6875 -79.9961 360° North 513 590 35,000  Level Indianapolis Center
Sun 07:04:49 AM 41.6875 -79.9961 360° North 513 590 35,000  Level Indianapolis Center
Sun 07:05:50 AM 41.6875 -79.9961 360° North 513 590 35,000  Level Indianapolis Center
Sun 07:06:49 AM 41.6875 -79.9961 360° North 513 590 35,000  Level Indianapolis Center
Sun 07:07:49 AM 41.6875 -79.9961 360° North 513 590 35,000  Level Indianapolis Center
Sun 07:08:49 AM 41.6875 -79.9961 360° North 513 590 35,000  Level Indianapolis Center
Sun 07:09:49 AM 41.6875 -79.9961 360° North 513 590 35,000  Level Indianapolis Center
Sun 07:10:49 AM 41.6875 -79.9961 360° North 513 590 35,000  Level Indianapolis Center
Sun 07:11:49 AM 41.6875 -79.9961 360° North 513 590 35,000  Level Indianapolis Center
Sun 07:12:49 AM 41.6875 -79.9961 360° North 513 590 35,000  Level Indianapolis Center
Sun 07:13:49 AM 41.6875 -79.9961 360° North 513 590 35,000  Level Indianapolis Center
Sun 07:14:49 AM 41.6875 -79.9961 360° North 513 590 35,000  Level Indianapolis Center
Sun 07:15:49 AM 41.6875 -79.9961 360° North 513 590 35,000  Level Indianapolis Center
Sun 07:16:49 AM 41.6875 -79.9961 360° North 513 590 35,000  Level Indianapolis Center
Sun 07:17:49 AM 41.6875 -79.9961 360° North 513 590 35,000  Level Indianapolis Center
Sun 07:18:49 AM 41.6875 -79.9961 360° North 513 590 35,000  Level Indianapolis Center
Sun 07:19:49 AM 41.6875 -79.9961 360° North 513 590 35,000  Level Indianapolis Center
Sun 07:20:49 AM 41.6875 -79.9961 360° North 513 590 35,000  Level Indianapolis Center
Sun 07:21:49 AM 41.6875 -79.9961 360° North 513 590 35,000  Level Indianapolis Center
Sun 07:22:49 AM 41.6875 -79.9961 360° North 513 590 35,000  Level Indianapolis Center
Sun 07:23:49 AM 41.6875 -79.9961 360° North 513 590 35,000  Level Indianapolis Center
Sun 07:24:49 AM 41.6875 -79.9961 360° North 513 590 35,000  Level Indianapolis Center
Sun 07:25:50 AM 41.6875 -79.9961 360° North 513 590 35,000  Level Indianapolis Center
Sun 07:26:50 AM 41.6875 -79.9961 360° North 513 590 35,000  Level Indianapolis Center
Sun 07:27:49 AM 41.6875 -79.9961 360° North 513 590 35,000  Level Indianapolis Center
Sun 07:28:49 AM 41.6875 -79.9961 360° North 513 590 35,000  Level Indianapolis Center
Sun 07:29:49 AM 41.6875 -79.9961 360° North 513 590 35,000  Level Indianapolis Center
Sun 07:30:49 AM 41.6875 -79.9961 360° North 513 590 35,000  Level Indianapolis Center
Sun 07:31:49 AM 41.6875 -79.9961 360° North 513 590 35,000  Level Indianapolis Center
Sun 07:32:49 AM 41.6875 -79.9961 360° North 513 590 35,000  Level Indianapolis Center
Sun 07:33:49 AM 41.6875 -79.9961 360° North 513 590 35,000  Level Indianapolis Center
Sun 07:34:49 AM 41.6875 -79.9961 360° North 513 590 35,000  Level Indianapolis Center
Sun 07:35:49 AM 41.6875 -79.9961 360° North 513 590 35,000  Level Indianapolis Center
Sun 07:36:49 AM 41.6875 -79.9961 360° North 513 590 35,000  Level Indianapolis Center
Sun 07:37:49 AM 41.6875 -79.9961 360° North 513 590 35,000  Level Indianapolis Center
Sun 07:38:49 AM 41.6875 -79.9961 360° North 513 590 35,000  Level Indianapolis Center
Sun 07:39:49 AM 41.6875 -79.9961 360° North 513 590 35,000  Level Indianapolis Center
Sun 07:40:50 AM 41.6875 -79.9961 360° North 513 590 35,000  Level Indianapolis Center
Sun 07:41:49 AM 41.6875 -79.9961 360° North 513 590 35,000  Level Indianapolis Center
Sun 07:42:49 AM 41.6875 -79.9961 360° North 513 590 35,000  Level Indianapolis Center
Sun 07:43:50 AM 41.6875 -79.9961 360° North 513 590 35,000  Level Indianapolis Center
Sun 07:44:51 AM 41.6875 -79.9961 360° North 513 590 35,000  Level Indianapolis Center
Sun 07:46:01 AM 41.6875 -79.9961 360° North 513 590 35,000  Level Indianapolis Center
Sun 07:47:02 AM 41.6875 -79.9961 360° North 513 590 35,000  Level Indianapolis Center
Sun 07:48:01 AM 41.6875 -79.9961 360° North 513 590 35,000  Level Indianapolis Center
Sun 07:49:01 AM 41.6875 -79.9961 360° North 513 590 35,000  Level Indianapolis Center
Sun 07:50:02 AM 41.6875 -79.9961 360° North 513 590 35,000  Level Indianapolis Center
Sun 07:51:01 AM 41.6875 -79.9961 360° North 513 590 35,000  Level Indianapolis Center
Sun 07:52:01 AM 41.6875 -79.9961 360° North 513 590 35,000  Level Indianapolis Center
Sun 07:53:01 AM 41.6875 -79.9961 360° North 513 590 35,000  Level Indianapolis Center
Sun 07:54:02 AM 41.6875 -79.9961 360° North 513 590 35,000  Level Indianapolis Center
Sun 07:55:01 AM 41.6875 -79.9961 360° North 513 590 35,000  Level Indianapolis Center
Sun 07:56:01 AM 41.6875 -79.9961 360° North 513 590 35,000  Level Indianapolis Center
Sun 07:57:02 AM 41.6875 -79.9961 360° North 513 590 35,000  Level Indianapolis Center
Sun 07:58:01 AM 41.6875 -79.9961 360° North 513 590 35,000  Level Indianapolis Center
Sun 07:59:01 AM 41.6875 -79.9961 360° North 513 590 35,000  Level Indianapolis Center
Sun 08:00:01 AM 41.6875 -79.9961 360° North 513 590 35,000  Level Indianapolis Center
Sun 08:01:02 AM 41.6875 -79.9961 360° North 513 590 35,000  Level Indianapolis Center
Sun 08:02:02 AM 41.6875 -79.9961 360° North 513 590 35,000  Level Indianapolis Center
Sun 08:03:01 AM 41.6875 -79.9961 360° North 513 590 35,000  Level Indianapolis Center
Sun 08:04:02 AM 41.6875 -79.9961 360° North 513 590 35,000  Level Indianapolis Center
Sun 08:05:02 AM 41.6875 -79.9961 360° North 513 590 35,000  Level Indianapolis Center
Sun 08:06:01 AM 41.6875 -79.9961 360° North 513 590 35,000  Level Indianapolis Center
Sun 08:07:01 AM 41.6875 -79.9961 360° North 513 590 35,000  Level Indianapolis Center
Sun 08:08:01 AM 41.6875 -79.9961 360° North 513 590 35,000  Level Indianapolis Center
Sun 08:09:01 AM 41.6875 -79.9961 360° North 513 590 35,000  Level Indianapolis Center
Sun 08:10:01 AM 41.6875 -79.9961 360° North 513 590 35,000  Level Indianapolis Center
Sun 08:11:01 AM 41.6875 -79.9961 360° North 513 590 35,000  Level Indianapolis Center
Sun 08:12:01 AM 41.6875 -79.9961 360° North 513 590 35,000  Level Indianapolis Center
Sun 08:13:01 AM 41.6875 -79.9961 360° North 513 590 35,000  Level Indianapolis Center
Sun 08:14:01 AM 41.6875 -79.9961 360° North 513 590 35,000  Level Indianapolis Center
Sun 08:15:01 AM 41.6875 -79.9961 360° North 513 590 35,000  Level Indianapolis Center
Sun 08:16:01 AM 41.6875 -79.9961 360° North 513 590 35,000  Level Indianapolis Center
Sun 08:17:01 AM 41.6875 -79.9961 360° North 513 590 35,000  Level Indianapolis Center
Sun 08:18:01 AM 41.6875 -79.9961 360° North 513 590 35,000  Level Indianapolis Center
Sun 08:19:01 AM 41.6875 -79.9961 360° North 513 590 35,000  Level Indianapolis Center
Sun 08:20:01 AM 41.6875 -79.9961 360° North 513 590 35,000  Level Indianapolis Center
Sun 08:21:01 AM 41.6875 -79.9961 360° North 513 590 35,000  Level Indianapolis Center
Sun 08:22:01 AM 41.6875 -79.9961 360° North 513 590 35,000  Level Indianapolis Center
Sun 08:23:01 AM 41.6875 -79.9961 360° North 513 590 35,000  Level Indianapolis Center
Sun 08:24:01 AM 41.6875 -79.9961 360° North 513 590 35,000  Level Indianapolis Center
Sun 08:25:01 AM 41.6875 -79.9961 360° North 513 590 35,000  Level Indianapolis Center
Sun 08:26:01 AM 41.6875 -79.9961 360° North 513 590 35,000  Level Indianapolis Center
Sun 08:27:01 AM 41.6875 -79.9961 360° North 513 590 35,000  Level Indianapolis Center
Sun 08:28:01 AM 41.6875 -79.9961 360° North 513 590 35,000  Level Indianapolis Center
Sun 08:29:01 AM 41.6875 -79.9961 360° North 513 590 35,000  Level Indianapolis Center
Sun 08:30:01 AM 41.6875 -79.9961 360° North 513 590 35,000  Level Indianapolis Center
Sun 08:31:01 AM 41.6875 -79.9961 360° North 513 590 35,000  Level Indianapolis Center
Sun 08:32:01 AM 41.6875 -79.9961 360° North 513 590 35,000  Level Indianapolis Center
Sun 08:33:01 AM 41.6875 -79.9961 360° North 513 590 35,000  Level Indianapolis Center
Sun 08:34:01 AM 41.6875 -79.9961 360° North 513 590 35,000  Level Indianapolis Center
Sun 08:35:01 AM 41.6875 -79.9961 360° North 513 590 35,000  Level Indianapolis Center
Sun 08:36:01 AM 41.6875 -79.9961 360° North 513 590 35,000  Level Indianapolis Center
Sun 08:37:01 AM 41.6875 -79.9961 360° North 513 590 35,000  Level Indianapolis Center
Sun 08:38:01 AM 41.6875 -79.9961 360° North 513 590 35,000  Level Indianapolis Center
Sun 08:39:01 AM 41.6875 -79.9961 360° North 513 590 35,000  Level Indianapolis Center
Sun 08:40:01 AM 41.6875 -79.9961 360° North 513 590 35,000  Level Indianapolis Center
Sun 08:41:01 AM 41.6875 -79.9961 360° North 513 590 35,000  Level Indianapolis Center
Sun 08:42:01 AM 41.6875 -79.9961 360° North 513 590 35,000  Level Indianapolis Center
Sun 08:43:01 AM 41.6875 -79.9961 360° North 513 590 35,000  Level Indianapolis Center
Sun 08:44:01 AM 41.6875 -79.9961 360° North 513 590 35,000  Level Indianapolis Center
Sun 08:45:01 AM 41.6875 -79.9961 360° North 513 590 35,000  Level Indianapolis Center
Sun 08:46:02 AM 41.6875 -79.9961 360° North 513 590 35,000  Level Indianapolis Center
Sun 08:47:01 AM 41.6875 -79.9961 360° North 513 590 35,000  Level Indianapolis Center
Sun 08:48:02 AM 41.6875 -79.9961 360° North 513 590 35,000  Level Indianapolis Center
Sun 08:49:01 AM 41.6875 -79.9961 360° North 513 590 35,000  Level Indianapolis Center
Sun 08:50:02 AM 41.6875 -79.9961 360° North 513 590 35,000  Level Indianapolis Center
Sun 08:51:01 AM 41.6875 -79.9961 360° North 513 590 35,000  Level Indianapolis Center
Sun 08:52:01 AM 41.6875 -79.9961 360° North 513 590 35,000  Level Indianapolis Center
Sun 08:53:02 AM 41.6875 -79.9961 360° North 513 590 35,000  Level Indianapolis Center
Sun 08:54:01 AM 41.6875 -79.9961 360° North 513 590 35,000  Level Indianapolis Center
Sun 08:55:02 AM 41.6875 -79.9961 360° North 513 590 35,000  Level Indianapolis Center
Sun 08:56:01 AM 41.6875 -79.9961 360° North 513 590 35,000  Level Indianapolis Center
Sun 08:57:02 AM 41.6875 -79.9961 360° North 513 590 35,000  Level Indianapolis Center
Sun 08:58:01 AM 41.6875 -79.9961 360° North 513 590 35,000  Level Indianapolis Center
Sun 08:59:01 AM 41.6875 -79.9961 360° North 513 590 35,000  Level Indianapolis Center
Sun 09:00:01 AM 41.6875 -79.9961 360° North 513 590 35,000  Level Indianapolis Center
Sun 09:01:02 AM 41.6875 -79.9961 360° North 513 590 35,000  Level Indianapolis Center
Sun 09:02:01 AM 41.6875 -79.9961 360° North 513 590 35,000  Level Indianapolis Center
Sun 09:03:01 AM 41.6875 -79.9961 360° North 513 590 35,000  Level Indianapolis Center
Sun 09:04:01 AM 41.6875 -79.9961 360° North 513 590 35,000  Level Indianapolis Center
Sun 09:05:01 AM 41.6875 -79.9961 360° North 513 590 35,000  Level Indianapolis Center
Sun 09:06:01 AM 41.6875 -79.9961 360° North 513 590 35,000  Level Indianapolis Center
Sun 09:07:01 AM 41.6875 -79.9961 360° North 513 590 35,000  Level Indianapolis Center
Sun 09:08:01 AM 41.6875 -79.9961 360° North 513 590 35,000  Level Indianapolis Center
Sun 09:09:02 AM 41.6875 -79.9961 360° North 513 590 35,000  Level Indianapolis Center
Sun 09:10:02 AM 41.6875 -79.9961 360° North 513 590 35,000  Level Indianapolis Center
Sun 09:11:02 AM 41.6875 -79.9961 360° North 513 590 35,000  Level Indianapolis Center
Sun 09:12:02 AM 41.6875 -79.9961 360° North 513 590 35,000  Level Indianapolis Center
Sun 09:13:02 AM 41.6875 -79.9961 360° North 513 590 35,000  Level Indianapolis Center
Sun 09:14:01 AM 41.6875 -79.9961 360° North 513 590 35,000  Level Indianapolis Center
Sun 09:15:02 AM 41.6875 -79.9961 360° North 513 590 35,000  Level Indianapolis Center
Sun 09:16:02 AM 41.6875 -79.9961 360° North 513 590 35,000  Level Indianapolis Center
Sun 09:17:02 AM 41.6875 -79.9961 360° North 513 590 35,000  Level Indianapolis Center
Sun 09:18:02 AM 41.6875 -79.9961 360° North 513 590 35,000  Level Indianapolis Center
Sun 09:19:02 AM 41.6875 -79.9961 360° North 513 590 35,000  Level Indianapolis Center
Sun 09:20:02 AM 41.6875 -79.9961 360° North 513 590 35,000  Level Indianapolis Center
Sun 09:21:02 AM 41.6875 -79.9961 360° North 513 590 35,000  Level Indianapolis Center
Sun 09:22:02 AM 41.6875 -79.9961 360° North 513 590 35,000  Level Indianapolis Center
Sun 09:23:02 AM 41.6875 -79.9961 360° North 513 590 35,000  Level Indianapolis Center
Sun 09:24:02 AM 41.6875 -79.9961 360° North 513 590 35,000  Level Indianapolis Center
Sun 09:25:02 AM 41.6875 -79.9961 360° North 513 590 35,000  Level Indianapolis Center
Sun 09:26:02 AM 41.6875 -79.9961 360° North 513 590 35,000  Level Indianapolis Center
Sun 09:27:02 AM 41.6875 -79.9961 360° North 513 590 35,000  Level Indianapolis Center
Sun 09:28:02 AM 41.6875 -79.9961 360° North 513 590 35,000  Level Indianapolis Center
Sun 09:29:02 AM 41.6875 -79.9961 360° North 513 590 35,000  Level Indianapolis Center
Sun 09:30:02 AM 41.6875 -79.9961 360° North 513 590 35,000  Level Indianapolis Center
Sun 09:31:01 AM 41.6875 -79.9961 360° North 513 590 35,000  Level Indianapolis Center
Sun 09:32:02 AM 41.6875 -79.9961 360° North 513 590 35,000  Level Indianapolis Center
Sun 09:33:02 AM 41.6875 -79.9961 360° North 513 590 35,000  Level Indianapolis Center
Sun 09:34:02 AM 41.6875 -79.9961 360° North 513 590 35,000  Level Indianapolis Center
Sun 09:35:02 AM 41.6875 -79.9961 360° North 513 590 35,000  Level Indianapolis Center
Sun 09:36:01 AM 41.6875 -79.9961 360° North 513 590 35,000  Level Indianapolis Center
Sun 09:37:02 AM 41.6875 -79.9961 360° North 513 590 35,000  Level Indianapolis Center
Sun 09:38:02 AM 41.6875 -79.9961 360° North 513 590 35,000  Level Indianapolis Center
Sun 09:39:01 AM 41.6875 -79.9961 360° North 513 590 35,000  Level Indianapolis Center
Sun 09:40:01 AM 41.6875 -79.9961 360° North 513 590 35,000  Level Indianapolis Center
Sun 09:41:02 AM 41.6875 -79.9961 360° North 513 590 35,000  Level Indianapolis Center
Sun 09:42:01 AM 41.6875 -79.9961 360° North 513 590 35,000  Level Indianapolis Center
Sun 09:43:02 AM 41.6875 -79.9961 360° North 513 590 35,000  Level Indianapolis Center
Sun 09:44:02 AM 41.6875 -79.9961 360° North 513 590 35,000  Level Indianapolis Center
Sun 09:45:02 AM 41.6875 -79.9961 360° North 513 590 35,000  Level Indianapolis Center
Sun 09:46:01 AM 41.6875 -79.9961 360° North 513 590 35,000  Level Indianapolis Center
Sun 09:47:02 AM 41.6875 -79.9961 360° North 513 590 35,000  Level Indianapolis Center
Sun 09:48:02 AM 41.6875 -79.9961 360° North 513 590 35,000  Level Indianapolis Center
Sun 09:49:02 AM 41.6875 -79.9961 360° North 513 590 35,000  Level Indianapolis Center
Sun 09:50:02 AM 41.6875 -79.9961 360° North 513 590 35,000  Level Indianapolis Center
Sun 09:51:02 AM 41.6875 -79.9961 360° North 513 590 35,000  Level Indianapolis Center
Sun 09:52:01 AM 41.6875 -79.9961 360° North 513 590 35,000  Level Indianapolis Center
Sun 09:53:02 AM 41.6875 -79.9961 360° North 513 590 35,000  Level Indianapolis Center
Sun 09:54:01 AM 41.6875 -79.9961 360° North 513 590 35,000  Level Indianapolis Center
Sun 09:55:01 AM 41.6875 -79.9961 360° North 513 590 35,000  Level Indianapolis Center
Sun 09:56:02 AM 41.6875 -79.9961 360° North 513 590 35,000  Level Indianapolis Center
Sun 09:57:02 AM 41.6875 -79.9961 360° North 513 590 35,000  Level Indianapolis Center
Sun 09:58:02 AM 41.6875 -79.9961 360° North 513 590 35,000  Level Indianapolis Center
Sun 09:59:01 AM 41.6875 -79.9961 360° North 513 590 35,000  Level Indianapolis Center
Sun 10:00:02 AM 41.6875 -79.9961 360° North 513 590 35,000  Level Indianapolis Center
Sun 10:01:02 AM 41.6875 -79.9961 360° North 513 590 35,000  Level Indianapolis Center
Sun 10:02:02 AM 41.6875 -79.9961 360° North 513 590 35,000  Level Indianapolis Center
Sun 10:03:02 AM 41.6875 -79.9961 360° North 513 590 35,000  Level Indianapolis Center
Sun 10:04:01 AM 41.6875 -79.9961 360° North 513 590 35,000  Level Indianapolis Center
Sun 10:05:02 AM 41.6875 -79.9961 360° North 513 590 35,000  Level Indianapolis Center
Sun 10:06:01 AM 41.6875 -79.9961 360° North 513 590 35,000  Level Indianapolis Center
Sun 10:07:01 AM 41.6875 -79.9961 360° North 513 590 35,000  Level Indianapolis Center
Sun 10:08:02 AM 41.6875 -79.9961 360° North 513 590 35,000  Level Indianapolis Center
Sun 10:09:02 AM 41.6875 -79.9961 360° North 513 590 35,000  Level Indianapolis Center
Sun 10:10:01 AM 41.6875 -79.9961 360° North 513 590 35,000  Level Indianapolis Center
Sun 10:11:02 AM 41.6875 -79.9961 360° North 513 590 35,000  Level Indianapolis Center
Sun 10:12:02 AM 41.6875 -79.9961 360° North 513 590 35,000  Level Indianapolis Center
Sun 10:13:02 AM 41.6875 -79.9961 360° North 513 590 35,000  Level Indianapolis Center
Sun 10:14:01 AM 41.6875 -79.9961 360° North 513 590 35,000  Level Indianapolis Center
Sun 10:15:02 AM 41.6875 -79.9961 360° North 513 590 35,000  Level Indianapolis Center
Sun 10:16:02 AM 41.6875 -79.9961 360° North 513 590 35,000  Level Indianapolis Center
Sun 10:17:02 AM 41.6875 -79.9961 360° North 513 590 35,000  Level Indianapolis Center
Sun 10:18:02 AM 41.6875 -79.9961 360° North 513 590 35,000  Level Indianapolis Center
Sun 10:19:02 AM 41.6875 -79.9961 360° North 513 590 35,000  Level Indianapolis Center
Sun 10:20:02 AM 41.6875 -79.9961 360° North 513 590 35,000  Level Indianapolis Center
Sun 10:21:02 AM 41.6875 -79.9961 360° North 513 590 35,000  Level Indianapolis Center
Sun 10:22:02 AM 41.6875 -79.9961 360° North 513 590 35,000  Level Indianapolis Center
Sun 10:23:02 AM 41.6875 -79.9961 360° North 513 590 35,000  Level Indianapolis Center
Sun 10:24:02 AM 41.6875 -79.9961 360° North 513 590 35,000  Level Indianapolis Center
Sun 10:25:02 AM 41.6875 -79.9961 360° North 513 590 35,000  Level Indianapolis Center
Sun 10:26:02 AM 41.6875 -79.9961 360° North 513 590 35,000  Level Indianapolis Center
Sun 10:27:01 AM 41.6875 -79.9961 360° North 513 590 35,000  Level Indianapolis Center
Sun 10:28:02 AM 41.6875 -79.9961 360° North 513 590 35,000  Level Indianapolis Center
Sun 10:29:02 AM 41.6875 -79.9961 360° North 513 590 35,000  Level Indianapolis Center
Sun 10:30:02 AM 41.6875 -79.9961 360° North 513 590 35,000  Level Indianapolis Center
Sun 10:31:02 AM 41.6875 -79.9961 360° North 513 590 35,000  Level Indianapolis Center
Sun 10:32:02 AM 41.6875 -79.9961 360° North 513 590 35,000  Level Indianapolis Center
Sun 10:33:02 AM 41.6875 -79.9961 360° North 513 590 35,000  Level Indianapolis Center
Sun 10:34:02 AM 41.6875 -79.9961 360° North 513 590 35,000  Level Indianapolis Center
Sun 10:35:02 AM 41.6875 -79.9961 360° North 513 590 35,000  Level Indianapolis Center
Sun 10:36:01 AM 41.6875 -79.9961 360° North 513 590 35,000  Level Indianapolis Center
Sun 10:37:02 AM 41.6875 -79.9961 360° North 513 590 35,000  Level Indianapolis Center
Sun 10:38:02 AM 41.6875 -79.9961 360° North 513 590 35,000  Level Indianapolis Center
Sun 10:39:02 AM 41.6875 -79.9961 360° North 513 590 35,000  Level Indianapolis Center
Sun 10:40:01 AM 41.6875 -79.9961 360° North 513 590 35,000  Level Indianapolis Center
Sun 10:41:02 AM 41.6875 -79.9961 360° North 513 590 35,000  Level Indianapolis Center
Sun 10:42:02 AM 41.6875 -79.9961 360° North 513 590 35,000  Level Indianapolis Center
Sun 10:43:02 AM 41.6875 -79.9961 360° North 513 590 35,000  Level Indianapolis Center
Sun 10:44:01 AM 41.6875 -79.9961 360° North 513 590 35,000  Level Indianapolis Center
Sun 10:45:01 AM 41.6875 -79.9961 360° North 513 590 35,000  Level Indianapolis Center
Sun 10:46:02 AM 41.6875 -79.9961 360° North 513 590 35,000  Level Indianapolis Center
Sun 10:47:02 AM 41.6875 -79.9961 360° North 513 590 35,000  Level Indianapolis Center
Sun 10:48:02 AM 41.6875 -79.9961 360° North 513 590 35,000  Level Indianapolis Center
Sun 10:49:02 AM 41.6875 -79.9961 360° North 513 590 35,000  Level Indianapolis Center
Sun 10:50:02 AM 41.6875 -79.9961 360° North 513 590 35,000  Level Indianapolis Center
Sun 10:51:02 AM 41.6875 -79.9961 360° North 513 590 35,000  Level Indianapolis Center
Sun 10:52:01 AM 41.6875 -79.9961 360° North 513 590 35,000  Level Indianapolis Center
Sun 10:53:02 AM 41.6875 -79.9961 360° North 513 590 35,000  Level Indianapolis Center
Sun 10:54:02 AM 41.6875 -79.9961 360° North 513 590 35,000  Level Indianapolis Center
Sun 10:55:01 AM 41.6875 -79.9961 360° North 513 590 35,000  Level Indianapolis Center
Sun 10:56:02 AM 41.6875 -79.9961 360° North 513 590 35,000  Level Indianapolis Center
Sun 10:57:02 AM 41.6875 -79.9961 360° North 513 590 35,000  Level Indianapolis Center
Sun 10:58:02 AM 41.6875 -79.9961 360° North 513 590 35,000  Level Indianapolis Center
Sun 10:59:02 AM 41.6875 -79.9961 360° North 513 590 35,000  Level Indianapolis Center
Sun 11:00:02 AM 41.6875 -79.9961 360° North 513 590 35,000  Level Indianapolis Center
Sun 11:01:02 AM 41.6875 -79.9961 360° North 513 590 35,000  Level Indianapolis Center
Sun 11:02:01 AM 41.6875 -79.9961 360° North 513 590 35,000  Level Indianapolis Center
Sun 11:03:01 AM 41.6875 -79.9961 360° North 513 590 35,000  Level Indianapolis Center
Sun 11:04:02 AM 41.6875 -79.9961 360° North 513 590 35,000  Level Indianapolis Center
Sun 11:05:02 AM 41.6875 -79.9961 360° North 513 590 35,000  Level Indianapolis Center
Sun 11:06:02 AM 41.6875 -79.9961 360° North 513 590 35,000  Level Indianapolis Center
Sun 11:07:02 AM 41.6875 -79.9961 360° North 513 590 35,000  Level Indianapolis Center
Sun 11:08:02 AM 41.6875 -79.9961 360° North 513 590 35,000  Level Indianapolis Center
Sun 11:09:02 AM 41.6875 -79.9961 360° North 513 590 35,000  Level Indianapolis Center
Sun 11:10:02 AM 41.6875 -79.9961 360° North 513 590 35,000  Level Indianapolis Center
Sun 11:11:02 AM 41.6875 -79.9961 360° North 513 590 35,000  Level Indianapolis Center
Sun 11:12:02 AM 41.6875 -79.9961 360° North 513 590 35,000  Level Indianapolis Center
Sun 11:13:02 AM 41.6875 -79.9961 360° North 513 590 35,000  Level Indianapolis Center
Sun 11:14:02 AM 41.6875 -79.9961 360° North 513 590 35,000  Level Indianapolis Center
Sun 11:15:02 AM 41.6875 -79.9961 360° North 513 590 35,000  Level Indianapolis Center
Sun 11:16:02 AM 41.6875 -79.9961 360° North 513 590 35,000  Level Indianapolis Center
Sun 11:17:01 AM 41.6875 -79.9961 360° North 513 590 35,000  Level Indianapolis Center
Sun 11:18:01 AM 41.6875 -79.9961 360° North 513 590 35,000  Level Indianapolis Center
Sun 11:19:02 AM 41.6875 -79.9961 360° North 513 590 35,000  Level Indianapolis Center
Sun 11:20:02 AM 41.6875 -79.9961 360° North 513 590 35,000  Level Indianapolis Center
Sun 11:21:02 AM 41.6875 -79.9961 360° North 513 590 35,000  Level Indianapolis Center
Sun 11:22:02 AM 41.6875 -79.9961 360° North 513 590 35,000  Level Indianapolis Center
Sun 11:23:02 AM 41.6875 -79.9961 360° North 513 590 35,000  Level Indianapolis Center
Sun 11:24:02 AM 41.6875 -79.9961 360° North 513 590 35,000  Level Indianapolis Center
Sun 11:25:02 AM 41.6875 -79.9961 360° North 513 590 35,000  Level Indianapolis Center
Sun 11:26:01 AM 41.6875 -79.9961 360° North 513 590 35,000  Level Indianapolis Center
Sun 11:27:02 AM 41.6875 -79.9961 360° North 513 590 35,000  Level Indianapolis Center
Sun 11:28:02 AM 41.6875 -79.9961 360° North 513 590 35,000  Level Indianapolis Center
Sun 11:29:02 AM 41.6875 -79.9961 360° North 513 590 35,000  Level Indianapolis Center
Sun 11:30:02 AM 41.6875 -79.9961 360° North 513 590 35,000  Level Indianapolis Center
Sun 11:31:02 AM 41.6875 -79.9961 360° North 513 590 35,000  Level Indianapolis Center
Sun 11:32:02 AM 41.6875 -79.9961 360° North 513 590 35,000  Level Indianapolis Center
Sun 11:33:02 AM 41.6875 -79.9961 360° North 513 590 35,000  Level Indianapolis Center
Sun 11:34:02 AM 41.6875 -79.9961 360° North 513 590 35,000  Level Indianapolis Center

Login

Don't have an account? Register now (free) for customized features, flight alerts, and more!